Shiloh, Virginia
Current Conditions -  °F | °C
As of 9:15 PM on Saturday 22 Nov 2014 (Local Time) from KEZF Reporting Station
Clear Clear  
Wind Chill: 37°   Ceiling: Unl
Heat Index: 41°   Visibility: 10mi
Dew Point: 18°   Wind: 6mph
Humidity: 39%   Direction: 190°S
Pressure: 30.3"   Gusts: NA
Location:  38.265°N, 77.1228°W
Report Text: KEZF 230215Z AUTO 19005KT 10SM CLR 05/M08 A3030 RMK AO2
Loading
Personal Weather Stations






























Interactive Weather Map New forecast layout! Learn more

10-Day Weather Forecast

Advertisements
Track Severe Weather on mobile